createdAt,value
2022-12-05T00:01:48.802Z,20.10
2022-12-05T00:07:09.052Z,20.10
2022-12-05T00:12:29.099Z,20.10
2022-12-05T00:17:49.289Z,20.10
2022-12-05T00:23:09.386Z,20.00
2022-12-05T00:28:29.522Z,20.10
2022-12-05T00:33:49.673Z,20.10
2022-12-05T00:39:09.885Z,20.00
2022-12-05T00:44:29.978Z,20.00
2022-12-05T00:49:50.258Z,20.00
2022-12-05T00:55:10.412Z,20.00
2022-12-05T01:00:30.665Z,20.00
2022-12-05T01:05:50.698Z,20.00
2022-12-05T01:11:10.899Z,20.00
2022-12-05T01:16:30.957Z,20.00
2022-12-05T01:21:50.950Z,20.00
2022-12-05T01:27:11.145Z,20.00
2022-12-05T01:32:31.337Z,20.00
2022-12-05T01:37:51.445Z,20.00
2022-12-05T01:43:11.484Z,20.00
2022-12-05T01:48:31.660Z,20.00
2022-12-05T01:53:51.791Z,19.90
2022-12-05T01:59:11.878Z,19.90
2022-12-05T02:04:32.003Z,19.90
2022-12-05T02:09:52.148Z,19.90
2022-12-05T02:15:12.325Z,19.90
2022-12-05T02:20:32.444Z,19.90
2022-12-05T02:25:52.691Z,19.90
2022-12-05T02:31:12.848Z,19.90
2022-12-05T02:36:32.879Z,19.90
2022-12-05T02:41:52.989Z,19.90
2022-12-05T02:47:13.144Z,19.90
2022-12-05T02:52:33.423Z,19.90
2022-12-05T02:57:53.559Z,19.90
2022-12-05T03:03:13.911Z,19.90
2022-12-05T03:08:33.947Z,19.90
2022-12-05T03:13:54.027Z,19.90
2022-12-05T03:19:14.213Z,19.80
2022-12-05T03:24:34.403Z,19.80
2022-12-05T03:29:54.679Z,19.90
2022-12-05T03:35:14.846Z,19.90
2022-12-05T03:40:34.926Z,19.80
2022-12-05T03:45:55.270Z,19.80
2022-12-05T03:51:15.390Z,19.80
2022-12-05T03:56:35.614Z,19.80
2022-12-05T04:01:55.801Z,19.80
2022-12-05T04:07:15.895Z,19.80
2022-12-05T04:12:35.905Z,19.80
2022-12-05T04:17:56.144Z,19.80
2022-12-05T04:23:16.243Z,19.80
2022-12-05T04:28:36.481Z,19.80
2022-12-05T04:33:56.547Z,19.80
2022-12-05T04:39:18.350Z,19.80
2022-12-05T04:44:38.375Z,19.80
2022-12-05T04:49:58.783Z,19.80
2022-12-05T04:55:19.057Z,19.80
2022-12-05T05:00:39.109Z,19.80
2022-12-05T05:05:59.223Z,19.80
2022-12-05T05:11:19.552Z,19.70
2022-12-05T05:16:39.713Z,19.70
2022-12-05T05:22:00.014Z,19.80
2022-12-05T05:27:20.004Z,19.70
2022-12-05T05:32:40.259Z,19.70
2022-12-05T05:38:00.286Z,19.70
2022-12-05T05:43:20.422Z,19.70
2022-12-05T05:48:40.544Z,19.70
2022-12-05T05:54:00.627Z,19.70
2022-12-05T05:59:20.815Z,19.70
2022-12-05T06:04:41.030Z,19.70
2022-12-05T06:10:01.525Z,19.70
2022-12-05T06:15:21.787Z,19.70
2022-12-05T06:20:41.685Z,19.70
2022-12-05T06:26:01.856Z,19.70
2022-12-05T06:31:21.962Z,19.70
2022-12-05T06:36:42.076Z,19.70
2022-12-05T06:42:02.101Z,19.70
2022-12-05T06:47:22.290Z,19.70
2022-12-05T06:52:42.517Z,19.70
2022-12-05T06:58:02.602Z,19.70
2022-12-05T07:03:22.705Z,19.70
2022-12-05T07:08:42.957Z,19.70
2022-12-05T07:14:10.491Z,19.70
2022-12-05T07:19:39.254Z,19.70
2022-12-05T07:24:59.330Z,19.70
2022-12-05T07:30:19.566Z,19.70
2022-12-05T07:35:39.703Z,19.70
2022-12-05T07:40:59.890Z,19.70
2022-12-05T07:46:20.070Z,19.70
2022-12-05T07:51:40.130Z,19.60
2022-12-05T07:57:00.204Z,19.60
2022-12-05T08:02:20.322Z,19.60
2022-12-05T08:07:40.685Z,19.60
2022-12-05T08:13:00.826Z,19.60
2022-12-05T08:18:27.063Z,19.60
2022-12-05T08:23:47.306Z,19.60
2022-12-05T08:29:07.471Z,19.60
2022-12-05T08:34:27.735Z,19.60
2022-12-05T08:39:47.759Z,19.60
2022-12-05T08:45:07.867Z,19.60
2022-12-05T08:50:28.067Z,19.60
2022-12-05T08:55:48.117Z,19.70
2022-12-05T09:01:08.321Z,19.70
2022-12-05T09:06:28.842Z,19.80
2022-12-05T09:11:48.985Z,19.90
2022-12-05T09:17:09.025Z,20.00
2022-12-05T09:22:29.142Z,20.00
2022-12-05T09:27:49.329Z,20.10
2022-12-05T09:33:09.429Z,20.10
2022-12-05T09:38:29.574Z,20.10
2022-12-05T09:43:49.730Z,20.20
2022-12-05T09:49:09.891Z,20.20
2022-12-05T09:54:29.928Z,20.30
2022-12-05T09:59:50.026Z,20.30
2022-12-05T10:05:10.227Z,20.50
2022-12-05T10:10:30.245Z,20.80
2022-12-05T10:15:55.700Z,21.10
2022-12-05T10:21:17.197Z,21.60
2022-12-05T10:26:37.107Z,22.10
2022-12-05T10:31:57.203Z,22.50
2022-12-05T10:37:17.437Z,23.00
2022-12-05T10:42:37.565Z,23.40
2022-12-05T10:47:57.781Z,23.70
2022-12-05T10:53:17.872Z,24.10
2022-12-05T10:58:37.943Z,24.40
2022-12-05T11:03:58.057Z,24.60
2022-12-05T11:09:18.266Z,24.80
2022-12-05T11:14:38.440Z,25.00
2022-12-05T11:19:58.674Z,25.20
2022-12-05T11:25:19.031Z,25.40
2022-12-05T11:30:39.289Z,25.50
2022-12-05T11:35:59.479Z,25.60
2022-12-05T11:41:19.675Z,25.60
2022-12-05T11:46:39.898Z,25.70
2022-12-05T11:52:00.046Z,25.70
2022-12-05T11:57:20.235Z,25.60
2022-12-05T12:02:40.522Z,25.60
2022-12-05T12:08:00.622Z,25.60
2022-12-05T12:13:20.702Z,25.60
2022-12-05T12:18:40.803Z,25.60
2022-12-05T12:24:00.972Z,25.60
2022-12-05T12:29:21.167Z,25.60
2022-12-05T12:34:41.112Z,25.60
2022-12-05T12:40:01.292Z,25.70
2022-12-05T12:45:21.474Z,25.70
2022-12-05T12:50:43.739Z,25.70
2022-12-05T12:56:04.475Z,25.70
2022-12-05T13:01:24.540Z,25.60
2022-12-05T13:06:44.689Z,25.60
2022-12-05T13:12:04.917Z,25.60
2022-12-05T13:17:25.169Z,25.50
2022-12-05T13:22:45.199Z,25.60
2022-12-05T13:28:05.294Z,25.60
2022-12-05T13:33:25.443Z,25.70
2022-12-05T13:38:46.006Z,25.70
2022-12-05T13:44:07.140Z,25.60
2022-12-05T13:49:27.471Z,25.60
2022-12-05T13:54:47.596Z,25.50
2022-12-05T14:00:07.704Z,25.40
2022-12-05T14:05:27.861Z,25.20
2022-12-05T14:10:47.942Z,25.00
2022-12-05T14:16:08.220Z,24.80
2022-12-05T14:21:28.276Z,24.60
2022-12-05T14:26:48.593Z,24.30
2022-12-05T14:32:08.636Z,24.10
2022-12-05T14:37:28.691Z,23.90
2022-12-05T14:42:48.834Z,23.60
2022-12-05T14:48:08.884Z,23.50
2022-12-05T14:53:29.019Z,23.20
2022-12-05T14:58:49.357Z,23.00
2022-12-05T15:04:09.421Z,22.80
2022-12-05T15:09:36.961Z,22.70
2022-12-05T15:14:58.081Z,22.50
2022-12-05T15:20:18.582Z,22.40
2022-12-05T15:25:38.763Z,22.30
2022-12-05T15:30:58.849Z,22.20
2022-12-05T15:36:18.956Z,22.10
2022-12-05T15:41:38.930Z,22.00
2022-12-05T15:46:59.135Z,21.90
2022-12-05T15:52:19.175Z,21.80
2022-12-05T15:57:39.462Z,21.80
2022-12-05T16:02:59.643Z,21.70
2022-12-05T16:08:19.766Z,21.70
2022-12-05T16:13:40.834Z,21.60
2022-12-05T16:19:00.644Z,21.50
2022-12-05T16:24:20.796Z,21.50
2022-12-05T16:29:41.012Z,21.40
2022-12-05T16:35:01.026Z,21.40
2022-12-05T16:40:21.072Z,21.30
2022-12-05T16:45:41.266Z,21.30
2022-12-05T16:51:01.377Z,21.30
2022-12-05T16:56:21.590Z,21.20
2022-12-05T17:01:41.692Z,21.20
2022-12-05T17:07:01.778Z,21.20
2022-12-05T17:12:21.939Z,21.10
2022-12-05T17:17:42.031Z,21.10
2022-12-05T17:23:02.299Z,21.10
2022-12-05T17:28:22.391Z,21.10
2022-12-05T17:33:42.595Z,21.10
2022-12-05T17:39:02.742Z,21.00
2022-12-05T17:44:23.261Z,21.00
2022-12-05T17:49:43.396Z,21.00
2022-12-05T17:55:03.547Z,21.00
2022-12-05T18:00:23.734Z,21.00
2022-12-05T18:05:43.883Z,20.90
2022-12-05T18:11:03.871Z,20.90
2022-12-05T18:16:24.224Z,20.90
2022-12-05T18:27:09.043Z,20.80
2022-12-05T18:32:29.110Z,20.80
2022-12-05T18:37:49.339Z,20.80
2022-12-05T18:43:09.738Z,20.80
2022-12-05T18:48:47.765Z,20.70
2022-12-05T18:54:08.263Z,20.80
2022-12-05T18:59:28.317Z,20.70
2022-12-05T19:04:48.815Z,20.70
2022-12-05T19:10:08.973Z,20.70
2022-12-05T19:15:29.219Z,20.70
2022-12-05T19:20:49.381Z,20.70
2022-12-05T19:26:09.583Z,20.60
2022-12-05T19:31:30.005Z,20.70
2022-12-05T19:36:49.957Z,20.60
2022-12-05T19:42:10.023Z,20.60
2022-12-05T19:47:30.022Z,20.60
2022-12-05T19:52:50.187Z,20.60
2022-12-05T19:58:10.217Z,20.50
2022-12-05T20:03:30.498Z,20.60
2022-12-05T20:08:50.596Z,20.50
2022-12-05T20:14:10.667Z,20.50
2022-12-05T20:19:30.882Z,20.50
2022-12-05T20:24:51.081Z,20.50
2022-12-05T20:30:11.226Z,20.50
2022-12-05T20:35:31.301Z,20.50
2022-12-05T20:40:51.571Z,20.50
2022-12-05T20:46:11.707Z,20.50
2022-12-05T20:51:31.822Z,20.40
2022-12-05T20:56:52.017Z,20.50
2022-12-05T21:02:12.205Z,20.50
2022-12-05T21:07:32.290Z,20.50
2022-12-05T21:12:52.434Z,20.50
2022-12-05T21:18:12.638Z,20.40
2022-12-05T21:23:32.825Z,20.40
2022-12-05T21:28:53.158Z,20.40
2022-12-05T21:34:13.158Z,20.40
2022-12-05T21:39:33.164Z,20.40
2022-12-05T21:44:53.233Z,20.40
2022-12-05T21:50:13.307Z,20.40
2022-12-05T21:55:33.444Z,20.40
2022-12-05T22:00:53.627Z,20.40
2022-12-05T22:06:13.884Z,20.40
2022-12-05T22:11:34.054Z,20.40
2022-12-05T22:16:54.148Z,20.40
2022-12-05T22:22:14.359Z,20.40
2022-12-05T22:27:35.325Z,20.40
2022-12-05T22:32:55.480Z,20.40
2022-12-05T22:38:15.519Z,20.40
2022-12-05T22:43:35.842Z,20.40
2022-12-05T22:48:55.946Z,20.40
2022-12-05T22:54:16.224Z,20.30
2022-12-05T22:59:36.466Z,20.40
2022-12-05T23:04:56.594Z,20.40
2022-12-05T23:10:16.737Z,20.30
2022-12-05T23:15:37.106Z,20.40
2022-12-05T23:20:57.017Z,20.40
2022-12-05T23:26:17.252Z,20.40
2022-12-05T23:31:37.401Z,20.30
2022-12-05T23:36:57.415Z,20.30
2022-12-05T23:42:17.493Z,20.30
2022-12-05T23:47:37.713Z,20.30
2022-12-05T23:52:57.765Z,20.30
2022-12-05T23:58:18.080Z,20.30
